Karshi, Uzbekistan
Current Conditions -  °F | °C
As of 9:00 AM on Saturday 25 Oct 2014 (Local Time) from UTSK Reporting Station
Clear Clear  
Wind Chill: 61°   Ceiling: Unl
Heat Index: 61°   Visibility: 6mi
Dew Point: 50°   Wind: 4mph
Humidity: 68%   Direction: 90°E
Pressure: 30"   Gusts: NA
Location:  38.86°N, 65.79°E
Report Text: UTSK 250400Z 09002MPS 060V120 CAVOK 16/10 Q1016 R16/CLRD70
Loading
Personal Weather Stations






























Interactive Weather Map
Tropical Storm Tracking
New forecast layout! Learn more

10-Day Weather Forecast

Advertisements
Track Severe Weather on mobile